Airfield :
LOGIN :

Register | Disclaimer

   EN    FR    IT 

 










Legend :    VFR   Marginal VFR   IFR   Intensive IFR   Very Intensive IFR
Visi :
Ceiling :
>= 8 km
>= 3000ft
5 to 8 km
1000 to 3000 ft
1500m to 5 km
500 to 1000 ft
800 to 1500m
200 to 500 ft
< 800m
< 200 ft
Symbols :   Thunderstorms  Fog  Heavy snow  Heavy precipitations  Wind > 20 kt
SIGMETs :     Misc.  Thunderstorms  Icing  Turbulence  Mountain Waves  Volcanic Ashes






- Airport Elevation : 15 ft
- IATA code : GIB


LXGB - Gibraltar

CURRENT METAR :
  • 031320Z 12011KT 9999 FEW015 26/20 Q1016 NOSIG RMK BLU BLU

EXPIRED METARs :
  • 031250Z 12011KT 9999 FEW016 26/20 Q1016 NOSIG RMK BLU BLU
  • 031220Z 12011KT 9999 FEW022 26/20 Q1016 NOSIG RMK BLU BLU
  • 031150Z 11010KT 9999 FEW018 26/19 Q1017 NOSIG RMK BLU BLU
  • 031125Z 11008KT 9999 FEW020 26/19 Q1017 NOSIG RMK BLU BLU
  • 031050Z 10008KT 9999 FEW015 25/19 Q1017 NOSIG RMK BLU BLU

TAF TAF LXGB
Valid from the 03 at 12:00 until the 03 at 21:00 UTC


031017Z 0312/0321 10008KT 9999 FEW014
PROB40 0316/0321 6000 HZ SCT006
PROB30 0319/0321 4000 HZ BKN003



MET'MAP, your aeronautical weather chart ! - Copyright ORBIFLY December 2007 - Disclaimer

ORBIFLY MET'MAP TEAM :

Programming & Development : Alexandra Zaïnal
Concept & original design : Baudouin d'Aumeries
Assistance for programming : Marc-Olivier Méhu
Technical & hardware support : Manuel Goepfert

Contact : metmap@orbifly.com




SOURCES & CREDITS :

   NOAA